createdAt,value
2019-05-14T00:00:46.222Z,94503.27
2019-05-14T00:05:51.979Z,94490.67
2019-05-14T00:10:56.575Z,94479.38
2019-05-14T00:16:01.483Z,94473.11
2019-05-14T00:21:06.134Z,94477.71
2019-05-14T00:26:12.163Z,94480.97
2019-05-14T00:31:16.751Z,94463.52
2019-05-14T00:36:21.673Z,94473.84
2019-05-14T00:41:26.188Z,94468.70
2019-05-14T00:46:31.575Z,94460.34
2019-05-14T00:51:36.138Z,94447.50
2019-05-14T00:56:41.708Z,94460.37
2019-05-14T01:01:46.436Z,94471.38
2019-05-14T01:06:51.265Z,94458.84
2019-05-14T01:11:55.975Z,94460.42
2019-05-14T01:17:02.097Z,94473.16
2019-05-14T01:22:07.022Z,94456.81
2019-05-14T01:27:12.371Z,94462.31
2019-05-14T01:32:17.449Z,94456.98
2019-05-14T01:37:22.122Z,94462.63
2019-05-14T01:42:26.884Z,94452.70
2019-05-14T01:47:31.901Z,94447.16
2019-05-14T01:52:36.624Z,94429.14
2019-05-14T01:57:42.536Z,94450.56
2019-05-14T02:02:48.175Z,94442.92
2019-05-14T02:07:52.776Z,94445.25
2019-05-14T02:12:58.347Z,94425.71
2019-05-14T02:18:02.912Z,94421.05
2019-05-14T02:23:07.611Z,94417.70
2019-05-14T02:28:12.233Z,94428.34
2019-05-14T02:33:19.179Z,94427.07
2019-05-14T02:38:22.951Z,94422.68
2019-05-14T02:43:29.269Z,94427.75
2019-05-14T02:48:33.972Z,94435.05
2019-05-14T02:53:39.216Z,94447.09
2019-05-14T02:58:43.858Z,94451.12
2019-05-14T03:03:49.588Z,94458.06
2019-05-14T03:08:54.371Z,94470.27
2019-05-14T03:13:59.956Z,94500.98
2019-05-14T03:19:04.681Z,94513.40
2019-05-14T03:24:09.777Z,94500.62
2019-05-14T03:29:14.402Z,94508.86
2019-05-14T03:34:22.320Z,94514.13
2019-05-14T03:39:25.451Z,94526.98
2019-05-14T03:44:30.233Z,94530.32
2019-05-14T03:49:34.886Z,94511.78
2019-05-14T03:54:41.039Z,94502.35
2019-05-14T03:59:46.019Z,94487.02
2019-05-14T04:04:50.758Z,94488.03
2019-05-14T04:09:59.531Z,94489.69
2019-05-14T04:15:05.464Z,94468.72
2019-05-14T04:20:10.382Z,94478.70
2019-05-14T04:25:14.997Z,94475.22
2019-05-14T04:30:23.913Z,94473.03
2019-05-14T04:35:29.460Z,94483.89
2019-05-14T04:40:32.660Z,94482.23
2019-05-14T04:45:39.526Z,94467.55
2019-05-14T04:50:43.716Z,94471.55
2019-05-14T04:55:49.508Z,94460.57
2019-05-14T05:00:55.343Z,94469.90
2019-05-14T05:05:59.959Z,94470.39
2019-05-14T05:11:09.106Z,94460.91
2019-05-14T05:16:12.435Z,94458.04
2019-05-14T05:21:19.105Z,94456.83
2019-05-14T05:26:23.384Z,94456.29
2019-05-14T05:31:29.127Z,94449.70
2019-05-14T05:36:35.307Z,94443.34
2019-05-14T05:41:40.042Z,94451.41
2019-05-14T05:46:44.581Z,94454.12
2019-05-14T05:51:49.472Z,94446.19
2019-05-14T05:56:53.949Z,94445.11
2019-05-14T06:01:58.996Z,94439.25
2019-05-14T06:07:08.855Z,94442.45
2019-05-14T06:12:13.268Z,94429.05
2019-05-14T06:17:19.227Z,94430.15
2019-05-14T06:22:24.030Z,94425.84
2019-05-14T06:27:28.926Z,94435.91
2019-05-14T06:32:33.554Z,94456.75
2019-05-14T06:37:38.638Z,94445.39
2019-05-14T06:42:43.565Z,94441.02
2019-05-14T06:47:48.755Z,94414.06
2019-05-14T06:52:53.591Z,94396.00
2019-05-14T06:57:58.577Z,94395.20
2019-05-14T07:03:03.344Z,94381.02
2019-05-14T07:08:08.923Z,94388.61
2019-05-14T07:13:13.739Z,94393.51
2019-05-14T07:18:19.054Z,94381.13
2019-05-14T07:23:23.789Z,94387.16
2019-05-14T07:28:28.993Z,94398.19
2019-05-14T07:33:33.648Z,94391.37
2019-05-14T07:38:39.103Z,94386.48
2019-05-14T07:43:43.915Z,94399.48
2019-05-14T07:49:03.448Z,94414.70
2019-05-14T07:53:54.695Z,94401.53
2019-05-14T07:59:02.110Z,94405.84
2019-05-14T08:04:05.828Z,94401.12
2019-05-14T08:09:10.561Z,94400.96
2019-05-14T08:14:15.256Z,94404.22
2019-05-14T08:19:26.828Z,94400.05
2019-05-14T08:24:27.104Z,94392.41
2019-05-14T08:29:32.510Z,94384.97
2019-05-14T08:34:38.986Z,94377.02
2019-05-14T08:39:43.443Z,94369.46
2019-05-14T08:44:51.194Z,94369.33
2019-05-14T08:49:54.338Z,94365.80
2019-05-14T08:55:07.021Z,94373.99
2019-05-14T09:00:13.495Z,94356.19
2019-05-14T09:05:13.755Z,94375.64
2019-05-14T09:10:19.408Z,94374.14
2019-05-14T09:15:24.451Z,94357.97
2019-05-14T09:20:29.208Z,94360.16
2019-05-14T09:25:34.110Z,94345.07
2019-05-14T09:30:38.879Z,94347.19
2019-05-14T09:35:43.593Z,94337.83
2019-05-14T09:40:49.035Z,94325.94
2019-05-14T09:45:54.836Z,94327.38
2019-05-14T09:50:59.572Z,94329.33
2019-05-14T09:56:04.243Z,94326.43
2019-05-14T10:01:08.957Z,94310.70
2019-05-14T10:06:13.586Z,94304.39
2019-05-14T10:11:18.588Z,94304.39
2019-05-14T10:16:23.176Z,94286.28
2019-05-14T10:21:29.265Z,94286.28
2019-05-14T10:26:34.241Z,94305.05
2019-05-14T10:31:39.961Z,94296.06
2019-05-14T10:36:44.647Z,94279.92
2019-05-14T10:41:49.364Z,94278.70
2019-05-14T10:46:58.272Z,94278.84
2019-05-14T10:52:03.166Z,94277.55
2019-05-14T10:57:09.675Z,94261.87
2019-05-14T11:02:18.411Z,94275.64
2019-05-14T11:07:22.048Z,94272.84
2019-05-14T11:12:29.467Z,94267.48
2019-05-14T11:17:33.273Z,94258.08
2019-05-14T11:22:37.951Z,94266.43
2019-05-14T11:27:42.504Z,94262.88
2019-05-14T11:32:49.241Z,94265.05
2019-05-14T11:37:53.612Z,94264.38
2019-05-14T11:42:59.171Z,94257.62
2019-05-14T11:48:04.249Z,94255.45
2019-05-14T11:53:20.110Z,94238.13
2019-05-14T11:58:23.308Z,94244.74
2019-05-14T12:03:28.616Z,94242.67
2019-05-14T12:08:33.531Z,94236.77
2019-05-14T12:13:39.495Z,94230.73
2019-05-14T12:18:44.427Z,94247.89
2019-05-14T12:23:49.415Z,94225.64
2019-05-14T12:28:56.066Z,94232.84
2019-05-14T12:34:00.603Z,94207.67
2019-05-14T12:39:09.674Z,94203.73
2019-05-14T12:44:14.260Z,94213.60
2019-05-14T12:49:19.007Z,94193.90
2019-05-14T12:54:23.757Z,94181.56
2019-05-14T12:59:28.664Z,94162.48
2019-05-14T13:04:33.528Z,94158.52
2019-05-14T13:09:38.628Z,94161.38
2019-05-14T13:14:43.395Z,94156.90
2019-05-14T13:19:48.790Z,94151.98
2019-05-14T13:24:53.455Z,94168.39
2019-05-14T13:29:59.190Z,94186.09
2019-05-14T13:35:09.557Z,94186.09
2019-05-14T13:40:13.889Z,94165.50
2019-05-14T13:45:19.311Z,94161.70
2019-05-14T13:50:24.191Z,94159.62
2019-05-14T13:55:30.710Z,94162.33
2019-05-14T14:00:35.371Z,94143.51
2019-05-14T14:05:40.671Z,94153.20
2019-05-14T14:10:52.281Z,94132.75
2019-05-14T14:15:51.799Z,94125.64
2019-05-14T14:20:56.506Z,94107.39
2019-05-14T14:26:01.212Z,94102.64
2019-05-14T14:31:11.029Z,94094.60
2019-05-14T14:36:14.898Z,94111.22
2019-05-14T14:41:19.828Z,94095.43
2019-05-14T14:46:24.478Z,94067.61
2019-05-14T14:51:30.530Z,94071.16
2019-05-14T14:56:35.310Z,94050.48
2019-05-14T15:01:40.594Z,94067.70
2019-05-14T15:06:45.413Z,94048.81
2019-05-14T15:11:50.162Z,94061.64
2019-05-14T15:16:54.766Z,94031.66
2019-05-14T15:21:59.447Z,94048.83
2019-05-14T15:27:08.889Z,94062.06
2019-05-14T15:32:11.728Z,94033.78
2019-05-14T15:37:18.888Z,94033.37
2019-05-14T15:42:22.867Z,94049.38
2019-05-14T15:47:29.713Z,94054.34
2019-05-14T15:52:33.912Z,94048.01
2019-05-14T15:57:39.761Z,94032.34
2019-05-14T16:02:44.884Z,94048.67
2019-05-14T16:07:49.719Z,94045.30
2019-05-14T16:12:54.394Z,94046.32
2019-05-14T16:18:08.303Z,94046.97
2019-05-14T16:23:05.751Z,94053.52
2019-05-14T16:28:10.535Z,94041.21
2019-05-14T16:33:15.261Z,94048.17
2019-05-14T16:38:23.029Z,94045.06
2019-05-14T16:43:31.486Z,94044.98
2019-05-14T16:48:32.818Z,94049.96
2019-05-14T16:53:38.029Z,94054.40
2019-05-14T16:58:42.828Z,94071.38
2019-05-14T17:03:49.253Z,94086.34
2019-05-14T17:08:56.473Z,94083.38
2019-05-14T17:14:01.270Z,94080.98
2019-05-14T17:19:09.127Z,94084.89
2019-05-14T17:24:13.291Z,94068.70
2019-05-14T17:29:19.195Z,94073.77
2019-05-14T17:34:23.990Z,94079.87
2019-05-14T17:39:28.745Z,94069.94
2019-05-14T17:44:33.472Z,94083.69
2019-05-14T17:49:39.118Z,94069.03
2019-05-14T17:54:44.066Z,94084.25
2019-05-14T17:59:49.555Z,94070.87
2019-05-14T18:04:58.689Z,94060.28
2019-05-14T18:10:02.037Z,94048.76
2019-05-14T18:15:09.022Z,94057.77
2019-05-14T18:20:14.021Z,94052.10
2019-05-14T18:25:21.584Z,94053.81
2019-05-14T18:30:28.777Z,94054.23
2019-05-14T18:35:33.043Z,94066.59
2019-05-14T18:40:39.757Z,94069.61
2019-05-14T18:45:44.378Z,94079.19
2019-05-14T18:50:49.591Z,94082.62
2019-05-14T18:55:54.390Z,94092.31
2019-05-14T19:00:59.300Z,94079.77
2019-05-14T19:06:04.229Z,94085.47
2019-05-14T19:11:10.029Z,94087.20
2019-05-14T19:16:14.655Z,94073.38
2019-05-14T19:21:19.449Z,94072.19
2019-05-14T19:26:33.477Z,94081.80
2019-05-14T19:31:30.408Z,94073.09
2019-05-14T19:36:35.078Z,94074.20
2019-05-14T19:41:39.654Z,94076.52
2019-05-14T19:46:44.326Z,94085.73
2019-05-14T19:51:49.168Z,94087.97
2019-05-14T19:56:57.488Z,94082.42
2019-05-14T20:02:00.229Z,94103.16
2019-05-14T20:07:04.997Z,94100.14
2019-05-14T20:12:09.765Z,94106.56
2019-05-14T20:17:14.474Z,94116.75
2019-05-14T20:22:19.235Z,94111.53
2019-05-14T20:27:23.833Z,94155.23
2019-05-14T20:32:29.916Z,94162.98
2019-05-14T20:37:34.733Z,94171.44
2019-05-14T20:42:39.595Z,94189.07
2019-05-14T20:47:44.356Z,94182.92
2019-05-14T20:52:49.090Z,94179.98
2019-05-14T20:57:53.739Z,94187.03
2019-05-14T21:02:59.646Z,94194.94
2019-05-14T21:08:04.624Z,94206.42
2019-05-14T21:13:09.641Z,94199.70
2019-05-14T21:18:14.435Z,94211.88
2019-05-14T21:23:19.384Z,94230.66
2019-05-14T21:28:24.076Z,94218.39
2019-05-14T21:33:30.334Z,94233.73
2019-05-14T21:38:35.098Z,94199.16
2019-05-14T21:43:39.593Z,94200.00
2019-05-14T21:48:44.248Z,94207.66
2019-05-14T21:53:48.941Z,94224.75
2019-05-14T21:58:53.577Z,94216.61
2019-05-14T22:03:59.267Z,94196.02
2019-05-14T22:09:05.737Z,94220.11
2019-05-14T22:14:10.800Z,94240.83
2019-05-14T22:19:15.319Z,94232.86
2019-05-14T22:24:21.136Z,94215.11
2019-05-14T22:29:25.856Z,94202.66
2019-05-14T22:34:30.442Z,94204.48
2019-05-14T22:39:35.037Z,94196.83
2019-05-14T22:44:39.825Z,94208.10
2019-05-14T22:49:44.390Z,94224.68
2019-05-14T22:54:49.121Z,94223.05
2019-05-14T22:59:54.805Z,94238.30
2019-05-14T23:04:59.290Z,94236.96
2019-05-14T23:10:04.686Z,94217.84
2019-05-14T23:15:09.569Z,94213.38
2019-05-14T23:20:14.233Z,94218.48
2019-05-14T23:25:18.878Z,94223.14
2019-05-14T23:30:33.747Z,94225.66
2019-05-14T23:35:39.136Z,94235.09
2019-05-14T23:40:43.882Z,94245.71
2019-05-14T23:45:48.508Z,94262.31
2019-05-14T23:50:53.183Z,94251.03
2019-05-14T23:55:57.832Z,94255.59
